sensor_id;sensor_type;location;lat;lon;timestamp;pressure;altitude;pressure_sealevel;temperature;humidity
81909;BME280;71372;43.514;1.512;2023-07-31T00:00:35;100339.88;;;21.00;65.09
81909;BME280;71372;43.514;1.512;2023-07-31T00:03:01;100339.03;;;20.99;65.45
81909;BME280;71372;43.514;1.512;2023-07-31T00:05:27;100341.81;;;20.92;65.19
81909;BME280;71372;43.514;1.512;2023-07-31T00:07:53;100337.41;;;20.91;65.48
81909;BME280;71372;43.514;1.512;2023-07-31T00:10:20;100338.94;;;20.87;65.42
81909;BME280;71372;43.514;1.512;2023-07-31T00:12:47;100337.09;;;20.81;65.83
81909;BME280;71372;43.514;1.512;2023-07-31T00:15:13;100337.09;;;20.81;65.71
81909;BME280;71372;43.514;1.512;2023-07-31T00:17:40;100335.22;;;20.75;66.42
81909;BME280;71372;43.514;1.512;2023-07-31T00:20:06;100330.47;;;20.71;66.27
81909;BME280;71372;43.514;1.512;2023-07-31T00:22:32;100335.06;;;20.70;66.24
81909;BME280;71372;43.514;1.512;2023-07-31T00:24:58;100326.50;;;20.67;66.92
81909;BME280;71372;43.514;1.512;2023-07-31T00:27:25;100328.84;;;20.63;67.16
81909;BME280;71372;43.514;1.512;2023-07-31T00:29:51;100335.19;;;20.50;67.61
81909;BME280;71372;43.514;1.512;2023-07-31T00:32:17;100332.66;;;20.49;67.44
81909;BME280;71372;43.514;1.512;2023-07-31T00:34:43;100326.00;;;20.45;67.95
81909;BME280;71372;43.514;1.512;2023-07-31T00:37:09;100320.16;;;20.41;68.12
81909;BME280;71372;43.514;1.512;2023-07-31T00:39:38;100330.81;;;20.43;68.27
81909;BME280;71372;43.514;1.512;2023-07-31T00:42:04;100321.41;;;20.38;68.24
81909;BME280;71372;43.514;1.512;2023-07-31T00:44:30;100325.22;;;20.31;68.72
81909;BME280;71372;43.514;1.512;2023-07-31T00:46:56;100317.88;;;20.31;68.19
81909;BME280;71372;43.514;1.512;2023-07-31T00:49:25;100319.59;;;20.26;69.01
81909;BME280;71372;43.514;1.512;2023-07-31T00:51:51;100327.34;;;20.22;69.29
81909;BME280;71372;43.514;1.512;2023-07-31T00:54:18;100323.41;;;20.18;69.40
81909;BME280;71372;43.514;1.512;2023-07-31T00:56:45;100322.16;;;20.14;69.87
81909;BME280;71372;43.514;1.512;2023-07-31T00:59:11;100310.28;;;20.02;71.42
81909;BME280;71372;43.514;1.512;2023-07-31T01:01:37;100319.06;;;20.04;69.74
81909;BME280;71372;43.514;1.512;2023-07-31T01:04:04;100313.00;;;20.02;69.95
81909;BME280;71372;43.514;1.512;2023-07-31T01:07:03;100311.56;;;20.06;70.49
81909;BME280;71372;43.514;1.512;2023-07-31T01:09:49;100305.69;;;20.02;70.80
81909;BME280;71372;43.514;1.512;2023-07-31T01:12:20;100311.16;;;19.96;70.43
81909;BME280;71372;43.514;1.512;2023-07-31T01:17:30;100308.28;;;19.84;70.43
81909;BME280;71372;43.514;1.512;2023-07-31T01:20:02;100309.91;;;19.92;70.33
81909;BME280;71372;43.514;1.512;2023-07-31T01:28:20;100317.88;;;19.87;70.19
81909;BME280;71372;43.514;1.512;2023-07-31T01:30:49;100314.97;;;19.82;70.67
81909;BME280;71372;43.514;1.512;2023-07-31T01:33:16;100323.34;;;19.80;70.47
81909;BME280;71372;43.514;1.512;2023-07-31T01:35:45;100309.13;;;19.78;70.79
81909;BME280;71372;43.514;1.512;2023-07-31T01:38:12;100313.94;;;19.69;70.99
81909;BME280;71372;43.514;1.512;2023-07-31T01:40:41;100308.94;;;19.73;70.78
81909;BME280;71372;43.514;1.512;2023-07-31T01:43:07;100307.06;;;19.73;70.53
81909;BME280;71372;43.514;1.512;2023-07-31T01:45:33;100306.22;;;19.73;70.33
81909;BME280;71372;43.514;1.512;2023-07-31T01:47:59;100305.78;;;19.69;70.43
81909;BME280;71372;43.514;1.512;2023-07-31T01:50:25;100303.09;;;19.69;70.35
81909;BME280;71372;43.514;1.512;2023-07-31T01:52:51;100307.91;;;19.67;70.21
81909;BME280;71372;43.514;1.512;2023-07-31T01:55:17;100301.66;;;19.60;70.72
81909;BME280;71372;43.514;1.512;2023-07-31T01:57:43;100309.78;;;19.60;70.36
81909;BME280;71372;43.514;1.512;2023-07-31T02:00:09;100311.28;;;19.56;70.41
81909;BME280;71372;43.514;1.512;2023-07-31T02:02:35;100299.56;;;19.49;70.80
81909;BME280;71372;43.514;1.512;2023-07-31T02:05:01;100306.66;;;19.50;70.85
81909;BME280;71372;43.514;1.512;2023-07-31T02:07:27;100295.78;;;19.50;70.75
81909;BME280;71372;43.514;1.512;2023-07-31T02:09:53;100288.31;;;19.45;70.77
81909;BME280;71372;43.514;1.512;2023-07-31T02:12:19;100285.81;;;19.44;70.82
81909;BME280;71372;43.514;1.512;2023-07-31T02:14:45;100295.41;;;19.40;70.63
81909;BME280;71372;43.514;1.512;2023-07-31T02:17:11;100286.84;;;19.36;70.96
81909;BME280;71372;43.514;1.512;2023-07-31T02:19:37;100290.81;;;19.34;70.72
81909;BME280;71372;43.514;1.512;2023-07-31T02:22:03;100284.97;;;19.37;70.59
81909;BME280;71372;43.514;1.512;2023-07-31T02:24:29;100281.66;;;19.35;70.48
81909;BME280;71372;43.514;1.512;2023-07-31T02:26:55;100286.66;;;19.31;70.49
81909;BME280;71372;43.514;1.512;2023-07-31T02:29:21;100284.75;;;19.32;70.50
81909;BME280;71372;43.514;1.512;2023-07-31T02:31:47;100283.09;;;19.31;69.90
81909;BME280;71372;43.514;1.512;2023-07-31T02:34:13;100285.81;;;19.31;70.30
81909;BME280;71372;43.514;1.512;2023-07-31T02:36:39;100287.28;;;19.27;70.23
81909;BME280;71372;43.514;1.512;2023-07-31T02:39:05;100283.75;;;19.26;70.33
81909;BME280;71372;43.514;1.512;2023-07-31T02:41:31;100281.03;;;19.19;70.66
81909;BME280;71372;43.514;1.512;2023-07-31T02:43:57;100284.56;;;19.20;70.16
81909;BME280;71372;43.514;1.512;2023-07-31T02:46:23;100281.25;;;19.18;70.07
81909;BME280;71372;43.514;1.512;2023-07-31T02:48:50;100276.03;;;18.96;71.52
81909;BME280;71372;43.514;1.512;2023-07-31T02:51:16;100280.00;;;19.01;70.43
81909;BME280;71372;43.514;1.512;2023-07-31T02:53:42;100274.16;;;19.04;70.33
81909;BME280;71372;43.514;1.512;2023-07-31T02:56:08;100265.19;;;19.03;70.26
81909;BME280;71372;43.514;1.512;2023-07-31T02:58:34;100266.63;;;18.99;70.29
81909;BME280;71372;43.514;1.512;2023-07-31T03:01:00;100264.97;;;18.98;70.49
81909;BME280;71372;43.514;1.512;2023-07-31T03:03:26;100270.81;;;18.95;70.49
81909;BME280;71372;43.514;1.512;2023-07-31T03:05:52;100259.97;;;18.95;70.33
81909;BME280;71372;43.514;1.512;2023-07-31T03:08:18;100258.91;;;18.96;70.11
81909;BME280;71372;43.514;1.512;2023-07-31T03:10:44;100265.81;;;18.92;70.28
81909;BME280;71372;43.514;1.512;2023-07-31T03:13:10;100265.00;;;18.91;70.14
81909;BME280;71372;43.514;1.512;2023-07-31T03:15:36;100264.97;;;18.85;70.37
81909;BME280;71372;43.514;1.512;2023-07-31T03:18:02;100263.53;;;18.82;70.18
81909;BME280;71372;43.514;1.512;2023-07-31T03:20:28;100268.13;;;18.82;69.99
81909;BME280;71372;43.514;1.512;2023-07-31T03:22:54;100275.59;;;18.80;70.16
81909;BME280;71372;43.514;1.512;2023-07-31T03:25:20;100265.81;;;18.79;69.92
81909;BME280;71372;43.514;1.512;2023-07-31T03:27:46;100267.91;;;18.77;70.04
81909;BME280;71372;43.514;1.512;2023-07-31T03:30:12;100258.69;;;18.71;69.94
81909;BME280;71372;43.514;1.512;2023-07-31T03:32:38;100261.84;;;18.68;69.88
81909;BME280;71372;43.514;1.512;2023-07-31T03:35:04;100266.19;;;18.62;70.06
81909;BME280;71372;43.514;1.512;2023-07-31T03:37:31;100264.94;;;18.58;70.23
81909;BME280;71372;43.514;1.512;2023-07-31T03:39:57;100265.75;;;18.59;69.92
81909;BME280;71372;43.514;1.512;2023-07-31T03:42:23;100262.66;;;18.55;70.54
81909;BME280;71372;43.514;1.512;2023-07-31T03:44:49;100272.22;;;18.51;70.50
81909;BME280;71372;43.514;1.512;2023-07-31T03:47:15;100267.44;;;18.47;70.40
81909;BME280;71372;43.514;1.512;2023-07-31T03:49:41;100272.84;;;18.40;70.51
81909;BME280;71372;43.514;1.512;2023-07-31T03:52:07;100271.78;;;18.41;70.53
81909;BME280;71372;43.514;1.512;2023-07-31T03:54:33;100267.81;;;18.37;70.84
81909;BME280;71372;43.514;1.512;2023-07-31T03:56:59;100271.16;;;18.39;70.53
81909;BME280;71372;43.514;1.512;2023-07-31T03:59:25;100273.22;;;18.37;70.54
81909;BME280;71372;43.514;1.512;2023-07-31T04:01:51;100268.00;;;18.35;70.48
81909;BME280;71372;43.514;1.512;2023-07-31T04:04:17;100277.41;;;18.33;70.82
81909;BME280;71372;43.514;1.512;2023-07-31T04:06:43;100284.47;;;18.34;70.26
81909;BME280;71372;43.514;1.512;2023-07-31T04:09:09;100289.47;;;18.37;70.24
81909;BME280;71372;43.514;1.512;2023-07-31T04:11:35;100285.31;;;18.34;70.28
81909;BME280;71372;43.514;1.512;2023-07-31T04:14:01;100289.28;;;18.32;70.42
81909;BME280;71372;43.514;1.512;2023-07-31T04:16:27;100288.44;;;18.31;70.44
81909;BME280;71372;43.514;1.512;2023-07-31T04:18:52;100288.22;;;18.26;70.44
81909;BME280;71372;43.514;1.512;2023-07-31T04:21:18;100288.63;;;18.23;70.70
81909;BME280;71372;43.514;1.512;2023-07-31T04:23:44;100288.59;;;18.17;70.99
81909;BME280;71372;43.514;1.512;2023-07-31T04:26:10;100289.03;;;18.14;71.07
81909;BME280;71372;43.514;1.512;2023-07-31T04:28:36;100292.78;;;18.13;70.77
81909;BME280;71372;43.514;1.512;2023-07-31T04:31:02;100288.19;;;18.13;70.91
81909;BME280;71372;43.514;1.512;2023-07-31T04:33:28;100298.81;;;18.15;70.70
81909;BME280;71372;43.514;1.512;2023-07-31T04:35:54;100292.34;;;18.16;70.64
81909;BME280;71372;43.514;1.512;2023-07-31T04:38:21;100296.09;;;18.15;70.46
81909;BME280;71372;43.514;1.512;2023-07-31T04:40:47;100294.44;;;18.14;70.66
81909;BME280;71372;43.514;1.512;2023-07-31T04:43:13;100302.56;;;18.14;70.60
81909;BME280;71372;43.514;1.512;2023-07-31T04:45:42;100300.25;;;18.10;70.06
81909;BME280;71372;43.514;1.512;2023-07-31T04:48:08;100310.66;;;18.07;70.38
81909;BME280;71372;43.514;1.512;2023-07-31T04:50:34;100314.41;;;18.06;70.83
81909;BME280;71372;43.514;1.512;2023-07-31T04:53:00;100315.25;;;18.06;70.55
81909;BME280;71372;43.514;1.512;2023-07-31T04:55:26;100321.28;;;18.08;70.67
81909;BME280;71372;43.514;1.512;2023-07-31T04:57:52;100321.91;;;18.10;70.21
81909;BME280;71372;43.514;1.512;2023-07-31T05:00:18;100324.00;;;18.08;70.40
81909;BME280;71372;43.514;1.512;2023-07-31T05:02:44;100329.44;;;18.15;70.25
81909;BME280;71372;43.514;1.512;2023-07-31T05:05:10;100328.19;;;18.18;70.06
81909;BME280;71372;43.514;1.512;2023-07-31T05:07:36;100333.88;;;18.23;70.33
81909;BME280;71372;43.514;1.512;2023-07-31T05:10:02;100327.81;;;18.21;70.02
81909;BME280;71372;43.514;1.512;2023-07-31T05:12:28;100325.31;;;18.26;69.86
81909;BME280;71372;43.514;1.512;2023-07-31T05:14:54;100328.25;;;18.31;69.79
81909;BME280;71372;43.514;1.512;2023-07-31T05:17:20;100327.44;;;18.37;69.81
81909;BME280;71372;43.514;1.512;2023-07-31T05:19:46;100328.72;;;18.41;69.47
81909;BME280;71372;43.514;1.512;2023-07-31T05:22:12;100332.88;;;18.44;69.26
81909;BME280;71372;43.514;1.512;2023-07-31T05:24:38;100326.63;;;18.43;69.44
81909;BME280;71372;43.514;1.512;2023-07-31T05:27:04;100333.31;;;18.47;69.47
81909;BME280;71372;43.514;1.512;2023-07-31T05:29:30;100329.56;;;18.48;69.35
81909;BME280;71372;43.514;1.512;2023-07-31T05:31:56;100332.06;;;18.50;69.14
81909;BME280;71372;43.514;1.512;2023-07-31T05:34:22;100327.47;;;18.50;69.13
81909;BME280;71372;43.514;1.512;2023-07-31T05:36:48;100319.16;;;18.58;69.33
81909;BME280;71372;43.514;1.512;2023-07-31T05:39:14;100329.59;;;18.61;69.11
81909;BME280;71372;43.514;1.512;2023-07-31T05:41:40;100330.88;;;18.65;68.96
81909;BME280;71372;43.514;1.512;2023-07-31T05:44:06;100330.88;;;18.72;69.64
81909;BME280;71372;43.514;1.512;2023-07-31T05:46:32;100329.66;;;18.75;69.34
81909;BME280;71372;43.514;1.512;2023-07-31T05:48:58;100316.28;;;18.80;68.90
81909;BME280;71372;43.514;1.512;2023-07-31T05:51:27;100321.50;;;18.88;68.94
81909;BME280;71372;43.514;1.512;2023-07-31T05:53:53;100324.66;;;18.98;69.09
81909;BME280;71372;43.514;1.512;2023-07-31T05:56:19;100330.53;;;19.08;68.70
81909;BME280;71372;43.514;1.512;2023-07-31T05:58:45;100335.94;;;19.15;68.65
81909;BME280;71372;43.514;1.512;2023-07-31T06:01:11;100337.59;;;19.22;68.54
81909;BME280;71372;43.514;1.512;2023-07-31T06:03:37;100335.50;;;19.31;68.25
81909;BME280;71372;43.514;1.512;2023-07-31T06:06:03;100334.69;;;19.44;67.79
81909;BME280;71372;43.514;1.512;2023-07-31T06:08:29;100340.50;;;19.54;67.29
81909;BME280;71372;43.514;1.512;2023-07-31T06:10:55;100339.25;;;19.63;67.15
81909;BME280;71372;43.514;1.512;2023-07-31T06:13:21;100344.03;;;19.74;66.90
81909;BME280;71372;43.514;1.512;2023-07-31T06:15:47;100345.03;;;19.93;66.82
81909;BME280;71372;43.514;1.512;2023-07-31T06:18:13;100343.88;;;20.14;66.10
81909;BME280;71372;43.514;1.512;2023-07-31T06:20:39;100346.09;;;20.44;66.35
81909;BME280;71372;43.514;1.512;2023-07-31T06:23:07;60918.53;;;-144.64;100.00
81909;BME280;71372;43.514;1.512;2023-07-31T06:25:33;100339.78;;;21.13;65.98
81909;BME280;71372;43.514;1.512;2023-07-31T06:27:59;100337.47;;;21.41;65.08
81909;BME280;71372;43.514;1.512;2023-07-31T06:30:25;100339.00;;;21.56;64.79
81909;BME280;71372;43.514;1.512;2023-07-31T06:32:51;100341.13;;;21.90;64.07
81909;BME280;71372;43.514;1.512;2023-07-31T06:35:17;100339.94;;;22.23;63.72
81909;BME280;71372;43.514;1.512;2023-07-31T06:37:43;100347.09;;;22.54;63.06
81909;BME280;71372;43.514;1.512;2023-07-31T06:40:10;100349.28;;;22.75;62.40
81909;BME280;71372;43.514;1.512;2023-07-31T06:42:36;100342.16;;;23.04;61.94
81909;BME280;71372;43.514;1.512;2023-07-31T06:45:02;100338.38;;;23.29;61.08
81909;BME280;71372;43.514;1.512;2023-07-31T06:47:28;100334.97;;;23.45;60.26
81909;BME280;71372;43.514;1.512;2023-07-31T06:49:55;100340.16;;;23.58;59.87
81909;BME280;71372;43.514;1.512;2023-07-31T06:52:21;100339.22;;;23.76;59.64
81909;BME280;71372;43.514;1.512;2023-07-31T06:55:14;100334.84;;;23.87;58.33
81909;BME280;71372;43.514;1.512;2023-07-31T06:57:43;100339.41;;;24.10;58.60
81909;BME280;71372;43.514;1.512;2023-07-31T07:00:09;100334.78;;;24.10;57.78
81909;BME280;71372;43.514;1.512;2023-07-31T07:02:35;100339.28;;;24.16;57.42
81909;BME280;71372;43.514;1.512;2023-07-31T07:05:01;100338.69;;;24.14;56.83
81909;BME280;71372;43.514;1.512;2023-07-31T07:07:28;100337.06;;;24.01;56.86
81909;BME280;71372;43.514;1.512;2023-07-31T07:09:54;100336.44;;;24.11;56.55
81909;BME280;71372;43.514;1.512;2023-07-31T07:12:20;100337.25;;;24.23;56.01
81909;BME280;71372;43.514;1.512;2023-07-31T07:14:46;100328.69;;;24.32;55.42
81909;BME280;71372;43.514;1.512;2023-07-31T07:17:13;100334.63;;;24.17;55.32
81909;BME280;71372;43.514;1.512;2023-07-31T07:19:40;100329.22;;;24.05;55.75
81909;BME280;71372;43.514;1.512;2023-07-31T07:22:07;100330.06;;;23.94;54.92
81909;BME280;71372;43.514;1.512;2023-07-31T07:24:33;100324.13;;;23.97;54.50
81909;BME280;71372;43.514;1.512;2023-07-31T07:26:59;100333.41;;;23.96;54.11
81909;BME280;71372;43.514;1.512;2023-07-31T07:29:25;100322.47;;;23.96;53.74
81909;BME280;71372;43.514;1.512;2023-07-31T07:31:51;100323.53;;;23.95;53.56
81909;BME280;71372;43.514;1.512;2023-07-31T07:34:17;100331.13;;;23.93;53.55
81909;BME280;71372;43.514;1.512;2023-07-31T07:36:43;100330.66;;;23.84;53.11
81909;BME280;71372;43.514;1.512;2023-07-31T07:39:10;100321.53;;;23.79;53.16
81909;BME280;71372;43.514;1.512;2023-07-31T07:41:36;100319.97;;;23.83;52.79
81909;BME280;71372;43.514;1.512;2023-07-31T07:44:03;100317.25;;;23.83;52.89
81909;BME280;71372;43.514;1.512;2023-07-31T07:46:28;100319.72;;;23.84;52.75
81909;BME280;71372;43.514;1.512;2023-07-31T07:48:54;100316.06;;;23.79;52.39
81909;BME280;71372;43.514;1.512;2023-07-31T07:51:20;100318.78;;;23.90;52.68
81909;BME280;71372;43.514;1.512;2023-07-31T07:53:46;100321.06;;;23.82;52.64
81909;BME280;71372;43.514;1.512;2023-07-31T07:56:12;100317.25;;;23.83;52.98
81909;BME280;71372;43.514;1.512;2023-07-31T07:58:38;100311.06;;;23.76;52.66
81909;BME280;71372;43.514;1.512;2023-07-31T08:01:04;100305.34;;;23.89;53.14
81909;BME280;71372;43.514;1.512;2023-07-31T08:03:30;100307.00;;;23.90;52.55
81909;BME280;71372;43.514;1.512;2023-07-31T08:06:00;100304.97;;;23.97;52.07
81909;BME280;71372;43.514;1.512;2023-07-31T08:08:27;100306.06;;;23.96;52.34
81909;BME280;71372;43.514;1.512;2023-07-31T08:10:53;100302.50;;;23.84;52.09
81909;BME280;71372;43.514;1.512;2023-07-31T08:13:19;100300.84;;;23.83;52.15
81909;BME280;71372;43.514;1.512;2023-07-31T08:15:45;100297.03;;;23.84;52.04
81909;BME280;71372;43.514;1.512;2023-07-31T08:18:11;100303.00;;;23.81;51.66
81909;BME280;71372;43.514;1.512;2023-07-31T08:20:37;100299.38;;;23.92;51.94
81909;BME280;71372;43.514;1.512;2023-07-31T08:23:04;100306.09;;;23.37;51.72
81909;BME280;71372;43.514;1.512;2023-07-31T08:25:30;100295.53;;;23.64;52.04
81909;BME280;71372;43.514;1.512;2023-07-31T08:27:56;100292.28;;;23.67;51.82
81909;BME280;71372;43.514;1.512;2023-07-31T08:30:22;100287.44;;;23.46;52.05
81909;BME280;71372;43.514;1.512;2023-07-31T08:32:49;100282.91;;;23.75;51.62
81909;BME280;71372;43.514;1.512;2023-07-31T08:35:15;100286.47;;;23.87;51.81
81909;BME280;71372;43.514;1.512;2023-07-31T08:37:41;100284.31;;;23.89;51.46
81909;BME280;71372;43.514;1.512;2023-07-31T08:40:07;100284.88;;;24.03;51.22
81909;BME280;71372;43.514;1.512;2023-07-31T08:42:33;100280.06;;;24.10;51.42
81909;BME280;71372;43.514;1.512;2023-07-31T08:44:59;100274.13;;;24.13;51.14
81909;BME280;71372;43.514;1.512;2023-07-31T08:47:27;100274.66;;;24.27;51.20
81909;BME280;71372;43.514;1.512;2023-07-31T08:49:54;100282.19;;;24.32;50.94
81909;BME280;71372;43.514;1.512;2023-07-31T08:52:21;100266.44;;;24.39;50.44
81909;BME280;71372;43.514;1.512;2023-07-31T08:54:47;100268.44;;;24.43;50.90
81909;BME280;71372;43.514;1.512;2023-07-31T08:57:12;100270.91;;;24.45;50.94
81909;BME280;71372;43.514;1.512;2023-07-31T08:59:40;100267.31;;;24.56;50.32
81909;BME280;71372;43.514;1.512;2023-07-31T09:02:08;100264.47;;;24.51;50.69
81909;BME280;71372;43.514;1.512;2023-07-31T09:04:35;100259.66;;;24.58;50.10
81909;BME280;71372;43.514;1.512;2023-07-31T09:07:02;100262.97;;;24.60;50.30
81909;BME280;71372;43.514;1.512;2023-07-31T09:09:30;100262.47;;;24.63;49.73
81909;BME280;71372;43.514;1.512;2023-07-31T09:12:00;100262.06;;;24.71;49.25
81909;BME280;71372;43.514;1.512;2023-07-31T09:14:26;100252.94;;;24.82;49.63
81909;BME280;71372;43.514;1.512;2023-07-31T09:16:57;100249.22;;;24.89;49.24
81909;BME280;71372;43.514;1.512;2023-07-31T09:19:29;100254.84;;;24.82;48.78
81909;BME280;71372;43.514;1.512;2023-07-31T09:21:55;100253.19;;;24.98;49.19
81909;BME280;71372;43.514;1.512;2023-07-31T09:24:39;100246.25;;;25.07;48.47
81909;BME280;71372;43.514;1.512;2023-07-31T09:27:05;100249.56;;;25.09;49.24
81909;BME280;71372;43.514;1.512;2023-07-31T09:29:31;100238.13;;;25.12;48.79
81909;BME280;71372;43.514;1.512;2023-07-31T09:31:57;100238.13;;;25.12;48.74
81909;BME280;71372;43.514;1.512;2023-07-31T09:34:37;100245.56;;;25.17;48.03
81909;BME280;71372;43.514;1.512;2023-07-31T09:37:05;100231.44;;;25.25;49.20
81909;BME280;71372;43.514;1.512;2023-07-31T09:39:31;100239.41;;;25.26;48.43
81909;BME280;71372;43.514;1.512;2023-07-31T09:41:57;100236.94;;;25.25;48.41
81909;BME280;71372;43.514;1.512;2023-07-31T09:44:39;100232.41;;;25.35;47.97
81909;BME280;71372;43.514;1.512;2023-07-31T09:47:06;100229.09;;;25.33;47.99
81909;BME280;71372;43.514;1.512;2023-07-31T09:49:32;100224.66;;;25.49;47.59
81909;BME280;71372;43.514;1.512;2023-07-31T09:51:59;100219.56;;;25.58;48.30
81909;BME280;71372;43.514;1.512;2023-07-31T09:54:25;100219.56;;;25.58;47.76
81909;BME280;71372;43.514;1.512;2023-07-31T09:56:51;100225.56;;;25.55;47.45
81909;BME280;71372;43.514;1.512;2023-07-31T09:59:19;100222.38;;;25.63;47.82
81909;BME280;71372;43.514;1.512;2023-07-31T10:01:45;100220.38;;;25.58;47.21
81909;BME280;71372;43.514;1.512;2023-07-31T10:04:12;100219.44;;;25.69;47.37
81909;BME280;71372;43.514;1.512;2023-07-31T10:06:39;100214.59;;;25.55;47.31
81909;BME280;71372;43.514;1.512;2023-07-31T10:09:07;100217.50;;;25.70;46.94
81909;BME280;71372;43.514;1.512;2023-07-31T10:11:47;100209.47;;;25.80;46.98
81909;BME280;71372;43.514;1.512;2023-07-31T10:14:19;100212.31;;;25.90;46.89
81909;BME280;71372;43.514;1.512;2023-07-31T10:16:47;100214.91;;;26.02;46.82
81909;BME280;71372;43.514;1.512;2023-07-31T10:19:13;100214.59;;;25.98;46.48
81909;BME280;71372;43.514;1.512;2023-07-31T10:21:39;100205.41;;;26.10;46.95
81909;BME280;71372;43.514;1.512;2023-07-31T10:24:11;100212.06;;;26.19;46.91
81909;BME280;71372;43.514;1.512;2023-07-31T10:26:38;100207.34;;;26.14;46.15
81909;BME280;71372;43.514;1.512;2023-07-31T10:29:05;100198.25;;;26.09;46.53
81909;BME280;71372;43.514;1.512;2023-07-31T10:31:32;100201.34;;;26.17;46.40
81909;BME280;71372;43.514;1.512;2023-07-31T10:33:59;100197.69;;;26.07;46.26
81909;BME280;71372;43.514;1.512;2023-07-31T10:36:26;100201.19;;;26.29;46.61
81909;BME280;71372;43.514;1.512;2023-07-31T10:38:55;100200.63;;;26.27;45.77
81909;BME280;71372;43.514;1.512;2023-07-31T10:41:31;100203.94;;;26.29;46.28
81909;BME280;71372;43.514;1.512;2023-07-31T10:43:59;100194.22;;;26.43;46.23
81909;BME280;71372;43.514;1.512;2023-07-31T10:46:27;100197.88;;;26.54;45.66
81909;BME280;71372;43.514;1.512;2023-07-31T10:49:01;100197.41;;;26.35;44.61
81909;BME280;71372;43.514;1.512;2023-07-31T10:51:34;100192.13;;;26.56;45.83
81909;BME280;71372;43.514;1.512;2023-07-31T10:54:14;100189.75;;;26.37;45.00
81909;BME280;71372;43.514;1.512;2023-07-31T10:56:44;100191.75;;;26.42;45.77
81909;BME280;71372;43.514;1.512;2023-07-31T10:59:10;100178.66;;;26.54;45.71
81909;BME280;71372;43.514;1.512;2023-07-31T11:01:55;100182.28;;;26.60;44.55
81909;BME280;71372;43.514;1.512;2023-07-31T11:04:30;100176.28;;;26.68;45.41
81909;BME280;71372;43.514;1.512;2023-07-31T11:07:02;100178.53;;;26.71;44.84
81909;BME280;71372;43.514;1.512;2023-07-31T11:09:30;100170.09;;;26.82;45.39
81909;BME280;71372;43.514;1.512;2023-07-31T11:11:56;100176.00;;;26.64;44.66
81909;BME280;71372;43.514;1.512;2023-07-31T11:14:22;100160.91;;;26.67;45.38
81909;BME280;71372;43.514;1.512;2023-07-31T11:16:51;100166.28;;;26.89;45.20
81909;BME280;71372;43.514;1.512;2023-07-31T11:19:24;100172.34;;;26.91;44.60
81909;BME280;71372;43.514;1.512;2023-07-31T11:21:52;100163.81;;;26.92;44.53
81909;BME280;71372;43.514;1.512;2023-07-31T11:24:19;100172.34;;;26.91;44.79
81909;BME280;71372;43.514;1.512;2023-07-31T11:26:54;100161.75;;;27.04;43.56
81909;BME280;71372;43.514;1.512;2023-07-31T11:29:20;100155.47;;;27.14;44.08
81909;BME280;71372;43.514;1.512;2023-07-31T11:31:47;100147.50;;;27.13;44.10
81909;BME280;71372;43.514;1.512;2023-07-31T11:34:13;100146.97;;;27.21;44.51
81909;BME280;71372;43.514;1.512;2023-07-31T11:36:39;100138.25;;;27.34;44.66
81909;BME280;71372;43.514;1.512;2023-07-31T11:39:07;100136.59;;;27.33;44.37
81909;BME280;71372;43.514;1.512;2023-07-31T11:41:33;100127.53;;;27.37;44.31
81909;BME280;71372;43.514;1.512;2023-07-31T11:44:00;100136.06;;;27.36;43.90
81909;BME280;71372;43.514;1.512;2023-07-31T11:46:27;100135.41;;;27.19;43.49
81909;BME280;71372;43.514;1.512;2023-07-31T11:48:59;100125.09;;;27.41;43.36
81909;BME280;71372;43.514;1.512;2023-07-31T11:51:25;100122.66;;;27.50;43.59
81909;BME280;71372;43.514;1.512;2023-07-31T11:53:56;100124.03;;;27.57;43.30
81909;BME280;71372;43.514;1.512;2023-07-31T11:56:24;100119.97;;;27.70;43.20
81909;BME280;71372;43.514;1.512;2023-07-31T11:58:59;100121.94;;;27.75;43.34
81909;BME280;71372;43.514;1.512;2023-07-31T12:01:26;100116.44;;;27.85;43.44
81909;BME280;71372;43.514;1.512;2023-07-31T12:03:56;100114.22;;;27.77;43.17
81909;BME280;71372;43.514;1.512;2023-07-31T12:06:32;100101.84;;;27.74;41.66
81909;BME280;71372;43.514;1.512;2023-07-31T12:09:04;100104.34;;;27.86;42.43
81909;BME280;71372;43.514;1.512;2023-07-31T12:11:31;100098.00;;;27.75;42.09
81909;BME280;71372;43.514;1.512;2023-07-31T12:13:57;100099.38;;;27.78;42.16
81909;BME280;71372;43.514;1.512;2023-07-31T12:16:26;100102.41;;;27.86;41.26
81909;BME280;71372;43.514;1.512;2023-07-31T12:18:52;100097.72;;;27.87;42.17
81909;BME280;71372;43.514;1.512;2023-07-31T12:21:19;100104.88;;;27.88;41.99
81909;BME280;71372;43.514;1.512;2023-07-31T12:23:45;100098.81;;;27.86;42.16
81909;BME280;71372;43.514;1.512;2023-07-31T12:26:14;100095.25;;;28.06;42.33
81909;BME280;71372;43.514;1.512;2023-07-31T12:28:44;100082.59;;;28.15;41.36
81909;BME280;71372;43.514;1.512;2023-07-31T12:31:12;100080.69;;;28.10;42.16
81909;BME280;71372;43.514;1.512;2023-07-31T12:33:40;100086.19;;;28.15;41.89
81909;BME280;71372;43.514;1.512;2023-07-31T12:36:15;100076.81;;;28.16;41.04
81909;BME280;71372;43.514;1.512;2023-07-31T12:38:42;100072.16;;;28.02;41.56
81909;BME280;71372;43.514;1.512;2023-07-31T12:41:08;100073.50;;;28.25;41.46
81909;BME280;71372;43.514;1.512;2023-07-31T12:43:35;100074.34;;;28.35;41.59
81909;BME280;71372;43.514;1.512;2023-07-31T12:46:02;100065.56;;;28.38;41.60
81909;BME280;71372;43.514;1.512;2023-07-31T12:48:28;100069.41;;;28.47;40.91
81909;BME280;71372;43.514;1.512;2023-07-31T12:50:54;100061.41;;;28.56;41.34
81909;BME280;71372;43.514;1.512;2023-07-31T12:53:20;100069.34;;;28.68;40.99
81909;BME280;71372;43.514;1.512;2023-07-31T12:55:46;100056.41;;;28.68;40.60
81909;BME280;71372;43.514;1.512;2023-07-31T12:58:12;100050.88;;;28.68;40.75